createdAt,value
2019-04-25T00:00:09.328Z,90.48
2019-04-25T00:01:09.350Z,90.19
2019-04-25T00:02:09.377Z,90.09
2019-04-25T00:03:09.397Z,90
2019-04-25T00:04:24.082Z,89.9
2019-04-25T00:05:09.443Z,89.62
2019-04-25T00:06:09.461Z,90.09
2019-04-25T00:07:09.482Z,89.33
2019-04-25T00:08:09.504Z,89.23
2019-04-25T00:09:09.527Z,89.23
2019-04-25T00:10:09.552Z,89.04
2019-04-25T00:11:09.572Z,89.14
2019-04-25T00:12:09.592Z,89.14
2019-04-25T00:13:09.621Z,89.14
2019-04-25T00:14:09.635Z,88.76
2019-04-25T00:16:09.691Z,89.04
2019-04-25T00:17:11.140Z,89.23
2019-04-25T00:19:09.753Z,89.43
2019-04-25T00:20:11.107Z,89.52
2019-04-25T00:21:09.790Z,89.04
2019-04-25T00:22:09.810Z,89.52
2019-04-25T00:23:09.839Z,89.43
2019-04-25T00:24:09.862Z,89.33
2019-04-25T00:26:11.299Z,88.95
2019-04-25T00:27:09.922Z,89.23
2019-04-25T00:28:11.382Z,89.04
2019-04-25T00:29:09.965Z,89.23
2019-04-25T00:30:11.307Z,89.43
2019-04-25T00:31:10.010Z,89.9
2019-04-25T00:32:11.604Z,89.9
2019-04-25T00:33:11.537Z,89.52
2019-04-25T00:34:10.076Z,89.9
2019-04-25T00:36:24.785Z,90.58
2019-04-25T00:37:10.150Z,91.05
2019-04-25T00:38:10.164Z,90.96
2019-04-25T00:39:11.770Z,91.82
2019-04-25T00:40:11.848Z,92.49
2019-04-25T00:41:11.599Z,93.16
2019-04-25T00:42:10.252Z,92.97
2019-04-25T00:43:11.408Z,93.16
2019-04-25T00:44:12.002Z,93.93
2019-04-25T00:45:11.846Z,94.5
2019-04-25T00:46:11.368Z,95.27
2019-04-25T00:47:11.719Z,96.51
2019-04-25T00:48:10.138Z,96.89
2019-04-25T00:49:12.145Z,96.32
2019-04-25T00:51:11.791Z,95.7
2019-04-25T00:52:25.136Z,95.56
2019-04-25T00:53:11.349Z,96.61
2019-04-25T00:54:11.846Z,96.94
2019-04-25T00:55:11.558Z,97.13
2019-04-25T00:56:11.243Z,96.75
2019-04-25T00:57:12.055Z,96.84
2019-04-25T00:58:11.464Z,97.04
2019-04-25T00:59:11.796Z,97.04
2019-04-25T01:00:11.596Z,97.61
2019-04-25T01:01:12.065Z,97.8
2019-04-25T01:02:11.439Z,97.9
2019-04-25T01:03:11.516Z,98.47
2019-04-25T01:05:11.623Z,98.95
2019-04-25T01:06:12.005Z,99.24
2019-04-25T01:07:12.499Z,99.62
2019-04-25T01:08:25.486Z,99.99
2019-04-25T01:09:12.286Z,99.99
2019-04-25T01:10:11.878Z,99.99
2019-04-25T01:11:11.481Z,99.99
2019-04-25T01:12:11.538Z,99.62
2019-04-25T01:13:11.239Z,99.15
2019-04-25T01:14:11.924Z,99.15
2019-04-25T01:15:11.570Z,98.47
2019-04-25T01:16:11.967Z,98.47
2019-04-25T01:18:12.269Z,97.8
2019-04-25T01:19:11.061Z,98.19
2019-04-25T01:20:11.083Z,97.23
2019-04-25T01:21:11.109Z,96.84
2019-04-25T01:22:11.133Z,97.56
2019-04-25T01:23:11.148Z,96.7
2019-04-25T01:24:25.836Z,97.09
2019-04-25T01:25:11.201Z,97.09
2019-04-25T01:26:11.215Z,96.8
2019-04-25T01:27:11.243Z,96.99
2019-04-25T01:28:11.260Z,97.18
2019-04-25T01:29:11.281Z,96.89
2019-04-25T01:30:11.305Z,96.7
2019-04-25T01:31:11.323Z,97.09
2019-04-25T01:32:11.345Z,96.8
2019-04-25T01:33:11.367Z,96.8
2019-04-25T01:34:11.392Z,96.7
2019-04-25T01:35:11.412Z,96.89
2019-04-25T01:36:11.437Z,97.28
2019-04-25T01:37:11.456Z,96.42
2019-04-25T01:38:11.486Z,96.13
2019-04-25T01:39:26.166Z,96.42
2019-04-25T01:40:11.522Z,96.7
2019-04-25T01:41:11.547Z,96.8
2019-04-25T01:42:11.566Z,96.32
2019-04-25T01:43:11.588Z,96.13
2019-04-25T01:44:11.621Z,95.79
2019-04-25T01:45:11.631Z,95.7
2019-04-25T01:46:13.331Z,96.27
2019-04-25T01:47:11.683Z,95.94
2019-04-25T01:48:13.203Z,95.89
2019-04-25T01:49:11.724Z,96.08
2019-04-25T01:50:11.741Z,95.7
2019-04-25T01:51:11.775Z,96.08
2019-04-25T01:52:13.506Z,96.18
2019-04-25T01:53:11.806Z,96.47
2019-04-25T01:54:11.829Z,96.47
2019-04-25T01:55:13.328Z,96.37
2019-04-25T01:56:13.321Z,96.42
2019-04-25T01:57:11.897Z,96.51
2019-04-25T01:58:13.305Z,96.42
2019-04-25T01:59:13.478Z,97.09
2019-04-25T02:00:13.754Z,97.09
2019-04-25T02:01:11.996Z,96.32
2019-04-25T02:02:13.953Z,96.89
2019-04-25T02:03:13.443Z,96.7
2019-04-25T02:04:13.205Z,97.28
2019-04-25T02:05:13.732Z,97.28
2019-04-25T02:06:13.406Z,96.99
2019-04-25T02:07:13.458Z,97.66
2019-04-25T02:08:12.136Z,97.28
2019-04-25T02:09:13.605Z,97.56
2019-04-25T02:10:13.429Z,97.66
2019-04-25T02:11:26.867Z,97.28
2019-04-25T02:12:13.454Z,97.38
2019-04-25T02:13:13.552Z,96.61
2019-04-25T02:14:13.693Z,97.18
2019-04-25T02:15:13.714Z,97.75
2019-04-25T02:16:14.060Z,97.75
2019-04-25T02:17:13.959Z,97.66
2019-04-25T02:18:13.671Z,97.95
2019-04-25T02:19:12.379Z,98.43
2019-04-25T02:20:13.901Z,98.43
2019-04-25T02:21:13.707Z,98.52
2019-04-25T02:22:12.443Z,98.33
2019-04-25T02:23:13.950Z,98.91
2019-04-25T02:24:13.678Z,99.99
2019-04-25T02:26:19.077Z,99.99
2019-04-25T02:27:27.218Z,99.99
2019-04-25T02:28:13.901Z,99.99
2019-04-25T02:29:13.616Z,99.99
2019-04-25T02:30:15.123Z,99.99
2019-04-25T02:31:15.310Z,99.99
2019-04-25T02:32:14.496Z,99.99
2019-04-25T02:33:14.180Z,99.99
2019-04-25T02:34:15.260Z,99.99
2019-04-25T02:35:14.691Z,99.99
2019-04-25T02:36:14.998Z,99.99
2019-04-25T02:37:14.529Z,99.99
2019-04-25T02:38:14.633Z,99.99
2019-04-25T02:39:14.714Z,99.99
2019-04-25T02:40:14.109Z,99.99
2019-04-25T02:41:14.684Z,99.99
2019-04-25T02:42:14.277Z,99.99
2019-04-25T02:43:27.570Z,99.99
2019-04-25T02:44:14.536Z,99.99
2019-04-25T02:45:16.072Z,99.99
2019-04-25T02:47:14.776Z,99.99
2019-04-25T02:48:14.188Z,99.99
2019-04-25T02:49:36.574Z,99.99
2019-04-25T02:50:15.043Z,99.99
2019-04-25T02:51:14.552Z,99.99
2019-04-25T02:52:18.296Z,99.99
2019-04-25T02:53:14.096Z,99.99
2019-04-25T02:54:13.966Z,99.99
2019-04-25T02:55:33.579Z,99.99
2019-04-25T02:56:35.549Z,99.96
2019-04-25T02:57:14.569Z,99.87
2019-04-25T02:58:14.069Z,99.96
2019-04-25T02:59:27.923Z,99.99
2019-04-25T03:00:14.909Z,99.67
2019-04-25T03:01:25.207Z,99.99
2019-04-25T03:02:15.329Z,99.99
2019-04-25T03:03:14.880Z,99.99
2019-04-25T03:04:14.479Z,99.99
2019-04-25T03:05:14.202Z,99.99
2019-04-25T03:06:14.947Z,99.99
2019-04-25T03:07:14.706Z,99.99
2019-04-25T03:08:14.249Z,99.99
2019-04-25T03:09:15.339Z,99.99
2019-04-25T03:10:14.791Z,99.99
2019-04-25T03:11:14.856Z,99.99
2019-04-25T03:12:33.108Z,99.99
2019-04-25T03:13:15.128Z,99.99
2019-04-25T03:14:28.254Z,99.99
2019-04-25T03:15:14.423Z,99.99
2019-04-25T03:16:14.160Z,99.99
2019-04-25T03:17:14.426Z,99.99
2019-04-25T03:18:17.293Z,99.99
2019-04-25T03:19:14.187Z,99.99
2019-04-25T03:20:16.514Z,99.99
2019-04-25T03:21:18.765Z,99.99
2019-04-25T03:23:14.418Z,99.99
2019-04-25T03:24:18.407Z,99.99
2019-04-25T03:25:18.886Z,99.99
2019-04-25T03:26:13.850Z,99.99
2019-04-25T03:27:14.277Z,99.99
2019-04-25T03:28:15.608Z,99.99
2019-04-25T03:29:13.916Z,99.99
2019-04-25T03:30:18.993Z,99.99
2019-04-25T03:31:26.857Z,99.99
2019-04-25T03:32:20.058Z,99.99
2019-04-25T03:33:21.021Z,99.99
2019-04-25T03:34:20.718Z,99.99
2019-04-25T03:35:15.708Z,99.99
2019-04-25T03:36:16.827Z,99.99
2019-04-25T03:37:14.096Z,99.99
2019-04-25T03:38:14.476Z,99.99
2019-04-25T03:39:14.798Z,99.99
2019-04-25T03:40:16.366Z,99.99
2019-04-25T03:41:14.746Z,98.91
2019-04-25T03:42:14.449Z,98.33
2019-04-25T03:44:16.003Z,98.14
2019-04-25T03:45:14.892Z,97.52
2019-04-25T03:46:28.952Z,96.75
2019-04-25T03:47:15.923Z,95.89
2019-04-25T03:48:14.329Z,95.22
2019-04-25T03:49:14.350Z,94.74
2019-04-25T03:50:16.279Z,93.88
2019-04-25T03:51:16.215Z,93.11
2019-04-25T03:52:16.450Z,93.4
2019-04-25T03:53:16.234Z,93.3
2019-04-25T03:54:16.467Z,93.21
2019-04-25T03:55:14.797Z,92.92
2019-04-25T03:56:16.821Z,92.73
2019-04-25T03:57:16.948Z,92.63
2019-04-25T03:58:16.651Z,92.73
2019-04-25T03:59:16.952Z,93.21
2019-04-25T04:00:16.894Z,92.73
2019-04-25T04:01:17.340Z,92.54
2019-04-25T04:02:29.300Z,93.11
2019-04-25T04:03:17.309Z,93.16
2019-04-25T04:04:18.415Z,92.87
2019-04-25T04:05:17.130Z,93.35
2019-04-25T04:06:17.021Z,93.07
2019-04-25T04:07:16.741Z,93.45
2019-04-25T04:08:15.717Z,93.07
2019-04-25T04:09:16.627Z,93.45
2019-04-25T04:10:16.607Z,93.07
2019-04-25T04:11:16.642Z,92.97
2019-04-25T04:12:15.711Z,92.97
2019-04-25T04:13:16.987Z,92.87
2019-04-25T04:15:16.976Z,93.07
2019-04-25T04:16:16.728Z,93.16
2019-04-25T04:17:17.243Z,93.54
2019-04-25T04:18:29.650Z,93.26
2019-04-25T04:19:16.585Z,93.45
2019-04-25T04:20:17.106Z,93.21
2019-04-25T04:21:18.144Z,94.12
2019-04-25T04:22:17.533Z,94.21
2019-04-25T04:23:16.664Z,93.93
2019-04-25T04:24:17.181Z,94.07
2019-04-25T04:25:17.029Z,94.55
2019-04-25T04:26:16.713Z,94.65
2019-04-25T04:27:17.717Z,94.45
2019-04-25T04:28:17.136Z,94.55
2019-04-25T04:29:17.533Z,95.03
2019-04-25T04:30:17.653Z,94.74
2019-04-25T04:31:17.561Z,95.31
2019-04-25T04:32:17.409Z,95.22
2019-04-25T04:33:34.041Z,95.22
2019-04-25T04:34:29.998Z,95.51
2019-04-25T04:35:17.404Z,95.61
2019-04-25T04:36:19.656Z,96.08
2019-04-25T04:37:17.536Z,95.7
2019-04-25T04:39:18.811Z,95.79
2019-04-25T04:40:18.702Z,95.7
2019-04-25T04:41:17.827Z,95.98
2019-04-25T04:42:17.907Z,96.56
2019-04-25T04:43:17.979Z,96.37
2019-04-25T04:44:18.143Z,97.23
2019-04-25T04:45:18.247Z,97.61
2019-04-25T04:46:19.763Z,97.8
2019-04-25T04:47:18.532Z,98.66
2019-04-25T04:48:17.005Z,98.47
2019-04-25T04:49:30.327Z,98.95
2019-04-25T04:50:18.464Z,99.29
2019-04-25T04:51:18.772Z,99.05
2019-04-25T04:52:18.842Z,99.43
2019-04-25T04:53:19.025Z,99.43
2019-04-25T04:54:17.143Z,99.48
2019-04-25T04:55:19.739Z,99.76
2019-04-25T04:56:17.676Z,99.38
2019-04-25T04:57:33.175Z,98.9
2019-04-25T04:58:19.226Z,99.38
2019-04-25T04:59:18.331Z,98.81
2019-04-25T05:01:18.643Z,98.61
2019-04-25T05:03:17.306Z,98.33
2019-04-25T05:04:18.853Z,97.85
2019-04-25T05:05:18.118Z,96.8
2019-04-25T05:06:17.684Z,96.51
2019-04-25T05:08:18.762Z,96.03
2019-04-25T05:09:18.016Z,96.37
2019-04-25T05:10:20.038Z,95.51
2019-04-25T05:11:18.155Z,95.51
2019-04-25T05:12:17.658Z,94.84
2019-04-25T05:13:19.720Z,94.36
2019-04-25T05:14:17.713Z,93.98
2019-04-25T05:15:19.171Z,94.07
2019-04-25T05:17:17.645Z,93.79
2019-04-25T05:18:34.306Z,94.26
2019-04-25T05:19:18.057Z,93.98
2019-04-25T05:20:18.927Z,93.59
2019-04-25T05:21:31.028Z,93.79
2019-04-25T05:22:18.220Z,93.98
2019-04-25T05:24:18.731Z,93.3
2019-04-25T05:25:19.107Z,93.21
2019-04-25T05:26:18.948Z,93.4
2019-04-25T05:27:34.431Z,93.5
2019-04-25T05:29:28.642Z,93.02
2019-04-25T05:30:28.647Z,92.92
2019-04-25T05:31:27.508Z,92.54
2019-04-25T05:32:27.563Z,92.25
2019-04-25T05:33:39.700Z,91.87
2019-04-25T05:34:28.142Z,92.06
2019-04-25T05:36:27.065Z,92.06
2019-04-25T05:38:27.391Z,91.97
2019-04-25T05:39:27.413Z,91.72
2019-04-25T05:41:27.389Z,88.03
2019-04-25T05:42:27.146Z,87.37
2019-04-25T05:43:27.254Z,87.17
2019-04-25T05:44:29.454Z,87.55
2019-04-25T05:45:26.984Z,87.37
2019-04-25T05:46:27.417Z,87.55
2019-04-25T05:47:28.098Z,87.55
2019-04-25T05:48:27.734Z,84.53
2019-04-25T05:49:27.578Z,80.43
2019-04-25T05:50:27.457Z,76.42
2019-04-25T05:51:27.180Z,74.34
2019-04-25T05:52:27.499Z,71.72
2019-04-25T05:53:27.289Z,69.06
2019-04-25T05:54:27.850Z,66.97
2019-04-25T05:55:27.393Z,65.2
2019-04-25T05:56:29.151Z,63.79
2019-04-25T05:57:27.243Z,60.67
2019-04-25T05:58:28.062Z,59.56
2019-04-25T05:59:28.087Z,58.53
2019-04-25T06:00:28.107Z,58.44
2019-04-25T06:01:30.082Z,57.18
2019-04-25T06:02:27.844Z,56.72
2019-04-25T06:03:27.767Z,56.24
2019-04-25T06:05:40.483Z,55.13
2019-04-25T06:06:27.140Z,54.55
2019-04-25T06:07:28.235Z,54.16
2019-04-25T06:08:28.103Z,53.22
2019-04-25T06:09:28.093Z,53.24
2019-04-25T06:10:27.865Z,52.08
2019-04-25T06:11:28.101Z,50.87
2019-04-25T06:12:27.883Z,50.31
2019-04-25T06:13:28.841Z,48.39
2019-04-25T06:14:27.990Z,48.2
2019-04-25T06:15:28.169Z,48.13
2019-04-25T06:16:30.353Z,48.1
2019-04-25T06:17:27.718Z,47.54
2019-04-25T06:18:27.738Z,47.52
2019-04-25T06:19:27.858Z,47.91
2019-04-25T06:20:27.877Z,47.71
2019-04-25T06:21:40.991Z,47.44
2019-04-25T06:22:27.733Z,47.88
2019-04-25T06:23:27.932Z,47.88
2019-04-25T06:24:28.278Z,47.03
2019-04-25T06:26:39.823Z,47.81
2019-04-25T06:27:28.471Z,47.71
2019-04-25T06:28:28.223Z,47.98
2019-04-25T06:29:28.089Z,47.49
2019-04-25T06:30:28.275Z,47.11
2019-04-25T06:31:29.373Z,46.25
2019-04-25T06:32:28.712Z,46.74
2019-04-25T06:33:27.798Z,46.52
2019-04-25T06:35:28.321Z,45.23
2019-04-25T06:36:27.751Z,44.06
2019-04-25T06:37:41.536Z,44.09
2019-04-25T06:38:29.585Z,43.6
2019-04-25T06:40:29.613Z,42.63
2019-04-25T06:41:29.139Z,43.7
2019-04-25T06:42:28.102Z,45.52
2019-04-25T06:43:29.037Z,44.7
2019-04-25T06:44:30.420Z,44.97
2019-04-25T06:45:28.767Z,45.82
2019-04-25T06:46:28.840Z,46.48
2019-04-25T06:47:28.052Z,46.16
2019-04-25T06:48:28.955Z,45.31
2019-04-25T06:49:29.369Z,45.51
2019-04-25T06:50:29.200Z,45.21
2019-04-25T06:51:29.938Z,45.72
2019-04-25T06:53:43.575Z,43.73
2019-04-25T06:54:29.537Z,42.68
2019-04-25T06:55:30.181Z,41.53
2019-04-25T06:56:28.495Z,40.88
2019-04-25T06:57:30.523Z,41.63
2019-04-25T06:58:30.117Z,42.68
2019-04-25T06:59:30.110Z,43.12
2019-04-25T07:00:34.200Z,45.21
2019-04-25T07:01:30.446Z,46.89
2019-04-25T07:02:29.652Z,47.64
2019-04-25T07:03:29.159Z,47.94
2019-04-25T07:04:29.338Z,48.13
2019-04-25T07:05:40.334Z,48.11
2019-04-25T07:06:29.362Z,48.2
2019-04-25T07:07:29.369Z,48.66
2019-04-25T07:08:42.972Z,48.08
2019-04-25T07:09:31.435Z,47.36
2019-04-25T07:10:29.436Z,45.95
2019-04-25T07:11:30.382Z,44.05
2019-04-25T07:12:32.994Z,43.59
2019-04-25T07:13:30.401Z,42.66
2019-04-25T07:14:29.502Z,41.44
2019-04-25T07:15:30.194Z,41.03
2019-04-25T07:17:28.317Z,40.93
2019-04-25T07:19:29.899Z,40.39
2019-04-25T07:20:30.211Z,39.72
2019-04-25T07:22:29.218Z,38.98
2019-04-25T07:23:28.493Z,39.18
2019-04-25T07:25:30.271Z,38.87
2019-04-25T07:26:30.144Z,38.87
2019-04-25T07:27:29.043Z,38.59
2019-04-25T07:28:32.776Z,39.55
2019-04-25T07:29:29.342Z,38.67
2019-04-25T07:30:48.173Z,38.4
2019-04-25T07:31:29.277Z,39.06
2019-04-25T07:32:34.208Z,37.99
2019-04-25T07:33:31.216Z,39.04
2019-04-25T07:34:29.777Z,38.56
2019-04-25T07:36:28.882Z,37.54
2019-04-25T07:37:29.733Z,36.76
2019-04-25T07:38:29.344Z,37.35
2019-04-25T07:39:29.865Z,37.52
2019-04-25T07:40:43.685Z,37.91
2019-04-25T07:41:29.526Z,37.48
2019-04-25T07:42:30.038Z,36.9
2019-04-25T07:43:29.912Z,37.02
2019-04-25T07:44:50.405Z,37.39
2019-04-25T07:45:29.521Z,37.31
2019-04-25T07:47:29.483Z,37.12
2019-04-25T07:48:30.391Z,37.12
2019-04-25T07:49:30.871Z,37.13
2019-04-25T07:50:30.205Z,36.65
2019-04-25T07:51:30.195Z,36.86
2019-04-25T07:52:29.564Z,36.27
2019-04-25T07:53:34.589Z,36.47
2019-04-25T07:54:30.985Z,36.86
2019-04-25T07:55:29.972Z,36.84
2019-04-25T07:56:44.257Z,36.94
2019-04-25T07:57:31.083Z,36.35
2019-04-25T07:58:51.787Z,36.94
2019-04-25T07:59:30.976Z,37.58
2019-04-25T08:00:29.795Z,38.07
2019-04-25T08:01:31.438Z,37.5
2019-04-25T08:02:30.598Z,36.57
2019-04-25T08:03:30.828Z,36.37
2019-04-25T08:04:30.098Z,35.8
2019-04-25T08:05:30.300Z,35.14
2019-04-25T08:06:30.165Z,35.71
2019-04-25T08:07:31.561Z,34.94
2019-04-25T08:08:30.600Z,34.75
2019-04-25T08:09:31.473Z,34.38
2019-04-25T08:10:30.392Z,34.26
2019-04-25T08:11:30.496Z,34.92
2019-04-25T08:12:47.283Z,35.96
2019-04-25T08:13:30.947Z,36.22
2019-04-25T08:14:31.824Z,36.51
2019-04-25T08:16:34.152Z,35.57
2019-04-25T08:17:31.346Z,35.65
2019-04-25T08:18:31.126Z,34.71
2019-04-25T08:19:31.254Z,34.22
2019-04-25T08:20:32.396Z,33.65
2019-04-25T08:21:30.652Z,34.36
2019-04-25T08:22:30.515Z,34.73
2019-04-25T08:23:36.585Z,33.85
2019-04-25T08:24:30.911Z,33.87
2019-04-25T08:25:33.376Z,33.54
2019-04-25T08:26:31.846Z,32.79
2019-04-25T08:27:31.149Z,32.21
2019-04-25T08:28:54.318Z,32.78
2019-04-25T08:29:31.764Z,32.84
2019-04-25T08:30:34.140Z,33.8
2019-04-25T08:31:31.251Z,32.84
2019-04-25T08:32:30.973Z,32.82
2019-04-25T08:33:33.887Z,32.92
2019-04-25T08:34:31.015Z,32.84
2019-04-25T08:35:33.769Z,31.79
2019-04-25T08:36:31.176Z,31.98
2019-04-25T08:37:34.383Z,31.87
2019-04-25T08:38:31.495Z,31.77
2019-04-25T08:39:33.978Z,31.31
2019-04-25T08:40:31.606Z,31.1
2019-04-25T08:41:31.551Z,31.1
2019-04-25T08:42:31.292Z,31.12
2019-04-25T08:43:45.923Z,31.1
2019-04-25T08:44:31.546Z,30.73
2019-04-25T08:45:31.523Z,31.2
2019-04-25T08:46:31.361Z,32.26
2019-04-25T08:47:31.461Z,32.75
2019-04-25T08:48:31.429Z,31.79
2019-04-25T08:49:31.536Z,31.51
2019-04-25T08:50:38.511Z,31.9
2019-04-25T08:51:33.762Z,32.47
2019-04-25T08:52:31.842Z,33.12
2019-04-25T08:53:32.640Z,33.88
2019-04-25T08:54:32.449Z,34.25
2019-04-25T08:55:32.927Z,34.84
2019-04-25T08:57:31.935Z,35.1
2019-04-25T08:58:32.524Z,35.57
2019-04-25T08:59:45.421Z,36.69
2019-04-25T09:00:32.488Z,38.23
2019-04-25T09:01:32.792Z,38.89
2019-04-25T09:02:34.146Z,38.31
2019-04-25T09:03:32.775Z,38.04
2019-04-25T09:04:33.119Z,37.08
2019-04-25T09:05:33.289Z,36.11
2019-04-25T09:06:33.222Z,36.4
2019-04-25T09:07:32.419Z,36.3
2019-04-25T09:08:32.849Z,35.47
2019-04-25T09:09:34.958Z,35.21
2019-04-25T09:11:37.837Z,33.22
2019-04-25T09:13:32.865Z,32.35
2019-04-25T09:14:32.375Z,31.77
2019-04-25T09:15:46.985Z,31.67
2019-04-25T09:16:33.756Z,30.24
2019-04-25T09:17:32.905Z,29.88
2019-04-25T09:18:33.979Z,30.44
2019-04-25T09:20:33.274Z,30.83
2019-04-25T09:21:33.433Z,29.86
2019-04-25T09:22:34.284Z,29.75
2019-04-25T09:23:33.630Z,31.49
2019-04-25T09:24:33.436Z,31.28
2019-04-25T09:25:33.755Z,30.88
2019-04-25T09:26:34.886Z,30.6
2019-04-25T09:27:33.605Z,29.35
2019-04-25T09:28:33.787Z,29.06
2019-04-25T09:29:33.478Z,29.64
2019-04-25T09:30:34.233Z,30.34
2019-04-25T09:31:47.517Z,29.96
2019-04-25T09:32:33.776Z,30.55
2019-04-25T09:33:34.418Z,30.27
2019-04-25T09:34:33.554Z,29.91
2019-04-25T09:35:33.466Z,30
2019-04-25T09:36:33.592Z,30.48
2019-04-25T09:37:33.561Z,29.81
2019-04-25T09:38:34.112Z,30.37
2019-04-25T09:39:33.728Z,30.65
2019-04-25T09:40:34.155Z,30.74
2019-04-25T09:41:33.646Z,29.88
2019-04-25T09:42:33.762Z,29.49
2019-04-25T09:43:33.523Z,29.3
2019-04-25T09:45:33.571Z,29.8
2019-04-25T09:46:34.144Z,29.21
2019-04-25T09:47:48.036Z,30.37
2019-04-25T09:48:34.615Z,30.3
2019-04-25T09:49:35.053Z,29.71
2019-04-25T09:50:33.942Z,29.44
2019-04-25T09:51:33.682Z,29.94
2019-04-25T09:52:34.015Z,27.87
2019-04-25T09:53:34.258Z,27.58
2019-04-25T09:54:33.607Z,26.51
2019-04-25T09:55:34.064Z,26.71
2019-04-25T09:56:33.979Z,27.49
2019-04-25T09:57:33.698Z,26.61
2019-04-25T09:58:33.863Z,25.94
2019-04-25T09:59:35.253Z,25.07
2019-04-25T10:00:33.796Z,24.69
2019-04-25T10:01:33.953Z,25.45
2019-04-25T10:02:33.869Z,25.83
2019-04-25T10:03:48.560Z,24.07
2019-04-25T10:04:37.862Z,24.96
2019-04-25T10:05:34.020Z,24.95
2019-04-25T10:06:36.523Z,25.33
2019-04-25T10:07:34.025Z,25.11
2019-04-25T10:08:34.320Z,25.99
2019-04-25T10:09:34.087Z,25.96
2019-04-25T10:10:33.873Z,26.74
2019-04-25T10:11:35.876Z,27.98
2019-04-25T10:12:34.272Z,28.49
2019-04-25T10:13:36.113Z,27.33
2019-04-25T10:14:34.250Z,27.15
2019-04-25T10:15:34.282Z,27.64
2019-04-25T10:16:36.165Z,27.62
2019-04-25T10:17:37.557Z,28.4
2019-04-25T10:18:49.046Z,28.4
2019-04-25T10:19:34.574Z,29.2
2019-04-25T10:20:35.825Z,27.25
2019-04-25T10:21:34.476Z,27.12
2019-04-25T10:22:36.300Z,28.38
2019-04-25T10:23:34.555Z,28.55
2019-04-25T10:24:34.572Z,28.15
2019-04-25T10:25:35.843Z,29.52
2019-04-25T10:26:37.600Z,30.46
2019-04-25T10:27:34.667Z,29.21
2019-04-25T10:28:36.054Z,28.51
2019-04-25T10:29:52.856Z,28.61
2019-04-25T10:31:36.338Z,29.57
2019-04-25T10:32:35.993Z,30.35
2019-04-25T10:33:34.868Z,30.55
2019-04-25T10:34:35.802Z,30.44
2019-04-25T10:35:52.915Z,31.79
2019-04-25T10:36:38.725Z,31.97
2019-04-25T10:37:37.570Z,33.14
2019-04-25T10:38:37.376Z,32.17
2019-04-25T10:39:36.467Z,31.98
2019-04-25T10:40:36.277Z,30.72
2019-04-25T10:41:39.592Z,31.6
2019-04-25T10:42:36.719Z,30.24
2019-04-25T10:43:36.678Z,28.58
2019-04-25T10:44:36.336Z,27.7
2019-04-25T10:47:36.287Z,28.97
2019-04-25T10:48:36.846Z,28.3
2019-04-25T10:49:36.937Z,28.3
2019-04-25T10:50:50.054Z,28.4
2019-04-25T10:51:36.720Z,28.68
2019-04-25T10:52:36.228Z,29.08
2019-04-25T10:53:36.280Z,28.39
2019-04-25T10:54:37.406Z,29.06
2019-04-25T10:55:35.527Z,29.16
2019-04-25T10:56:35.985Z,29.46
2019-04-25T10:57:36.460Z,29.05
2019-04-25T10:58:37.515Z,30.51
2019-04-25T11:00:36.737Z,29.65
2019-04-25T11:01:36.339Z,29.16
2019-04-25T11:02:36.406Z,29.55
2019-04-25T11:03:36.272Z,30.14
2019-04-25T11:04:35.795Z,28.89
2019-04-25T11:05:36.719Z,28.68
2019-04-25T11:06:50.517Z,29.44
2019-04-25T11:07:36.403Z,30.02
2019-04-25T11:08:36.663Z,30.71
2019-04-25T11:09:36.740Z,30.5
2019-04-25T11:10:36.811Z,30.69
2019-04-25T11:11:36.623Z,30.5
2019-04-25T11:12:36.317Z,30.29
2019-04-25T11:13:37.855Z,30.19
2019-04-25T11:14:36.725Z,29.71
2019-04-25T11:15:36.431Z,30.08
2019-04-25T11:16:36.138Z,30.85
2019-04-25T11:17:36.352Z,30.37
2019-04-25T11:19:40.064Z,30.19
2019-04-25T11:20:36.301Z,29.24
2019-04-25T11:21:36.281Z,29.04
2019-04-25T11:22:51.714Z,28.85
2019-04-25T11:23:36.338Z,28.85
2019-04-25T11:24:36.772Z,28.36
2019-04-25T11:25:36.639Z,29.04
2019-04-25T11:26:37.045Z,28.36
2019-04-25T11:27:36.469Z,28.36
2019-04-25T11:28:36.479Z,27.48
2019-04-25T11:29:36.630Z,29.24
2019-04-25T11:30:36.540Z,28.75
2019-04-25T11:31:36.563Z,28.18
2019-04-25T11:32:36.594Z,29.05
2019-04-25T11:33:36.622Z,28.86
2019-04-25T11:34:36.650Z,28.28
2019-04-25T11:35:36.797Z,27.98
2019-04-25T11:36:36.705Z,27.68
2019-04-25T11:37:36.772Z,27.58
2019-04-25T11:38:52.080Z,27.68
2019-04-25T11:39:36.786Z,27.69
2019-04-25T11:40:37.072Z,27.89
2019-04-25T11:41:36.844Z,28.57
2019-04-25T11:42:36.871Z,27.98
2019-04-25T11:43:38.103Z,27.7
2019-04-25T11:44:37.473Z,27.4
2019-04-25T11:45:36.954Z,26.43
2019-04-25T11:46:39.230Z,27.01
2019-04-25T11:47:37.010Z,27.4
2019-04-25T11:48:37.036Z,26.72
2019-04-25T11:49:37.065Z,26.53
2019-04-25T11:50:39.442Z,26.23
2019-04-25T11:51:37.124Z,27.5
2019-04-25T11:52:37.149Z,26.53
2019-04-25T11:53:51.843Z,26.15
2019-04-25T11:54:37.221Z,25.76
2019-04-25T11:55:37.233Z,25.85
2019-04-25T11:56:37.263Z,26.53
2019-04-25T11:57:37.296Z,26.23
2019-04-25T11:58:37.317Z,26.14
2019-04-25T11:59:37.344Z,25.75
2019-04-25T12:00:37.373Z,26.23
2019-04-25T12:01:37.399Z,26.23
2019-04-25T12:02:37.426Z,26.53
2019-04-25T12:03:37.460Z,25.65
2019-04-25T12:04:37.492Z,25.95
2019-04-25T12:05:37.513Z,26.53
2019-04-25T12:07:37.572Z,26.53
2019-04-25T12:08:37.594Z,26.53
2019-04-25T12:09:37.623Z,26.62
2019-04-25T12:10:37.648Z,27.4
2019-04-25T12:11:37.746Z,27.89
2019-04-25T12:12:39.644Z,27.9
2019-04-25T12:13:37.735Z,28.19
2019-04-25T12:14:37.761Z,27.7
2019-04-25T12:15:37.790Z,27.69
2019-04-25T12:16:37.831Z,27.69
2019-04-25T12:17:37.846Z,27.69
2019-04-25T12:18:37.656Z,27.31
2019-04-25T12:19:40.429Z,27.21
2019-04-25T12:20:37.926Z,27.29
2019-04-25T12:21:37.954Z,28.54
2019-04-25T12:22:37.985Z,27.1
2019-04-25T12:23:38.011Z,27.87
2019-04-25T12:24:38.035Z,27.1
2019-04-25T12:25:54.308Z,27.19
2019-04-25T12:26:38.094Z,27.08
2019-04-25T12:27:38.120Z,28.15
2019-04-25T12:28:38.150Z,28.44
2019-04-25T12:29:39.012Z,27.48
2019-04-25T12:30:43.826Z,27.59
2019-04-25T12:32:38.259Z,27.01
2019-04-25T12:33:38.286Z,26.72
2019-04-25T12:34:38.315Z,26.9
2019-04-25T12:35:38.340Z,27.39
2019-04-25T12:37:38.397Z,27.08
2019-04-25T12:39:38.449Z,28.26
2019-04-25T12:40:38.477Z,27.87
2019-04-25T12:41:54.361Z,28.28
2019-04-25T12:42:38.532Z,28.18
2019-04-25T12:43:38.560Z,27.79
2019-04-25T12:44:38.594Z,27.31
2019-04-25T12:45:38.615Z,27.31
2019-04-25T12:46:38.650Z,27.19
2019-04-25T12:47:38.668Z,27.58
2019-04-25T12:48:38.723Z,27.58
2019-04-25T12:49:38.731Z,26.62
2019-04-25T12:50:38.506Z,27.1
2019-04-25T12:51:38.780Z,27.68
2019-04-25T12:52:38.807Z,28.17
2019-04-25T12:54:38.862Z,27.58
2019-04-25T12:55:38.644Z,28.17
2019-04-25T12:56:38.926Z,27.58
2019-04-25T12:57:55.340Z,28.17
2019-04-25T12:58:38.973Z,28.55
2019-04-25T12:59:39.002Z,28.28
2019-04-25T13:00:54.018Z,28.28
2019-04-25T13:01:39.166Z,27.69
2019-04-25T13:02:39.103Z,27.29
2019-04-25T13:03:39.109Z,27.68
2019-04-25T13:04:39.148Z,27.68
2019-04-25T13:05:39.163Z,27.58
2019-04-25T13:06:39.242Z,27.39
2019-04-25T13:07:39.228Z,27.68
2019-04-25T13:08:39.244Z,27.68
2019-04-25T13:09:39.277Z,28.17
2019-04-25T13:10:39.051Z,28.36
2019-04-25T13:11:39.331Z,28.34
2019-04-25T13:12:39.354Z,29.3
2019-04-25T13:13:54.048Z,29.21
2019-04-25T13:14:39.408Z,28.91
2019-04-25T13:15:39.189Z,28.81
2019-04-25T13:16:39.759Z,28.91
2019-04-25T13:17:39.495Z,28.81
2019-04-25T13:18:39.521Z,28.91
2019-04-25T13:19:39.544Z,28.93
2019-04-25T13:20:39.344Z,28.34
2019-04-25T13:21:39.599Z,28.34
2019-04-25T13:22:39.626Z,28.54
2019-04-25T13:23:39.654Z,28.05
2019-04-25T13:24:39.689Z,28.25
2019-04-25T13:25:39.708Z,28.05
2019-04-25T13:26:39.736Z,28.34
2019-04-25T13:27:39.763Z,28.64
2019-04-25T13:28:56.120Z,28.17
2019-04-25T13:29:39.819Z,28.05
2019-04-25T13:30:39.646Z,28.93
2019-04-25T13:31:39.871Z,28.65
2019-04-25T13:32:39.899Z,28.26
2019-04-25T13:33:39.927Z,29.14
2019-04-25T13:34:39.955Z,28.26
2019-04-25T13:35:39.979Z,27.68
2019-04-25T13:36:40.013Z,27.68
2019-04-25T13:37:40.036Z,27.86
2019-04-25T13:38:40.062Z,28.15
2019-04-25T13:39:40.088Z,27.67
2019-04-25T13:40:40.116Z,28.25
2019-04-25T13:41:40.148Z,28.05
2019-04-25T13:42:40.172Z,28.25
2019-04-25T13:43:40.199Z,28.34
2019-04-25T13:44:40.224Z,28.93